Time;durP1;ratioP1;P1;durP2;ratioP2;P2;SDS_P1;SDS_P2;PMS_P1;PMS_P2;Temp;Humidity;BMP_temperature;BMP_pressure;BME280_temperature;BME280_humidity;BME280_pressure;Samples;Min_cycle;Max_cycle;Signal;HPM_P1;HPM_P2
2021/10/13 00:00:34;;;;;;;;;25.75;25.00;;;;;;;;4693957;30;30027;-75
2021/10/13 00:02:59;;;;;;;;;18.00;17.50;;;;;;;;4683773;30;29627;-76
2021/10/13 00:05:25;;;;;;;;;20.33;19.00;;;;;;;;4692040;30;30049;-75
2021/10/13 00:07:50;;;;;;;;;24.50;23.00;;;;;;;;4379342;30;6158339;-76
2021/10/13 00:10:15;;;;;;;;;22.00;22.00;;;;;;;;4130992;30;4918996;-76
2021/10/13 00:12:41;;;;;;;;;27.75;26.50;;;;;;;;4681216;30;30038;-76
2021/10/13 00:15:08;;;;;;;;;36.67;33.67;;;;;;;;4694078;30;30358;-76
2021/10/13 00:17:33;;;;;;;;;34.75;31.75;;;;;;;;4688263;30;30007;-75
2021/10/13 00:19:59;;;;;;;;;33.00;32.25;;;;;;;;4665246;30;30420;-75
2021/10/13 00:22:24;;;;;;;;;29.75;29.75;;;;;;;;4691879;30;30179;-75
2021/10/13 00:24:49;;;;;;;;;28.33;25.67;;;;;;;;4698193;30;30080;-75
2021/10/13 00:27:15;;;;;;;;;32.33;32.00;;;;;;;;4684530;30;30244;-75
2021/10/13 00:29:40;;;;;;;;;29.75;28.25;;;;;;;;4681170;30;30009;-76
2021/10/13 00:32:06;;;;;;;;;26.67;25.33;;;;;;;;4666369;30;29929;-75
2021/10/13 00:34:32;;;;;;;;;25.25;25.25;;;;;;;;4691372;30;30020;-75
2021/10/13 00:36:58;;;;;;;;;25.00;22.25;;;;;;;;4684264;30;30053;-75
2021/10/13 00:39:23;;;;;;;;;35.75;32.75;;;;;;;;4680842;30;30263;-75
2021/10/13 00:42:16;;;;;;;;;;;;;;;;;;323015;30;162452067;-75
2021/10/13 00:46:19;;;;;;;;;7.00;7.00;;;;;;;;394751;30;89167125;-75
2021/10/13 00:52:13;;;;;;;;;11.50;11.50;;;;;;;;503948;30;32224395;-75
2021/10/13 00:59:04;;;;;;;;;18.50;18.50;;;;;;;;2;185418706;185418706;-75
2021/10/13 01:07:14;;;;;;;;;21.00;21.00;;;;;;;;3;100894049;200121179;-75
2021/10/13 01:14:36;;;;;;;;;36.00;29.00;;;;;;;;2;220153313;220153313;-75
2021/10/13 01:19:46;;;;;;;;;14.50;14.50;;;;;;;;2;198088486;198088486;-75
2021/10/13 01:22:55;;;;;;;;;34.00;31.00;;;;;;;;340427;30;48554285;-75
2021/10/13 01:26:14;;;;;;;;;35.00;31.00;;;;;;;;2238775;30;100554985;-75
2021/10/13 01:34:07;;;;;;;;;16.00;13.00;;;;;;;;5;23802150;156555748;-75
2021/10/13 01:38:49;;;;;;;;;23.00;23.00;;;;;;;;2;177291385;177291385;-75
2021/10/13 01:44:03;;;;;;;;;18.50;17.00;;;;;;;;161331;30;38760683;-75
2021/10/13 01:47:01;;;;;;;;;;;;;;;;;;161404;30;95215890;-75
2021/10/13 01:49:49;;;;;;;;;36.00;33.00;;;;;;;;446977;30;15515782;-76
2021/10/13 01:52:36;;;;;;;;;12.50;12.50;;;;;;;;156930;30;20929222;-75
2021/10/13 01:55:10;;;;;;;;;16.00;14.00;;;;;;;;326195;30;70540650;-75
2021/10/13 02:04:41;;;;;;;;;;;;;;;;;;913815;30;259766057;-76
2021/10/13 02:13:42;;;;;;;;;24.50;22.00;;;;;;;;161429;30;258063578;-76
2021/10/13 02:23:01;;;;;;;;;39.00;32.50;;;;;;;;2;283270460;283270460;-76
2021/10/13 02:27:21;;;;;;;;;17.00;17.00;;;;;;;;2;176590504;176590504;-75
2021/10/13 02:32:34;;;;;;;;;21.00;21.00;;;;;;;;2;284661412;284661412;-76
2021/10/13 02:37:51;;;;;;;;;20.50;20.50;;;;;;;;307449;30;127460749;-76
2021/10/13 02:40:16;;;;;;;;;22.25;19.25;;;;;;;;4436605;30;5105277;-76
2021/10/13 02:42:42;;;;;;;;;34.25;32.25;;;;;;;;4696151;30;29931;-76
2021/10/13 02:45:07;;;;;;;;;26.00;24.75;;;;;;;;4696311;30;30098;-75
2021/10/13 02:47:37;;;;;;;;;24.50;23.75;;;;;;;;4689149;30;30122;-75
2021/10/13 02:50:22;;;;;;;;;32.50;30.75;;;;;;;;4685947;30;30175;-75
2021/10/13 02:53:10;;;;;;;;;14.25;13.00;;;;;;;;4682962;30;29893;-75
2021/10/13 02:55:44;;;;;;;;;20.00;16.75;;;;;;;;4690140;30;30029;-75
2021/10/13 02:58:26;;;;;;;;;26.50;25.00;;;;;;;;4695044;30;30077;-74
2021/10/13 03:00:53;;;;;;;;;28.25;26.00;;;;;;;;4682036;30;30883;-75
2021/10/13 03:03:27;;;;;;;;;15.00;14.25;;;;;;;;4668269;30;30152;-75
2021/10/13 03:05:54;;;;;;;;;17.50;15.50;;;;;;;;4681931;30;30131;-75
2021/10/13 03:08:21;;;;;;;;;13.00;10.50;;;;;;;;4681977;30;29903;-74
2021/10/13 03:12:14;;;;;;;;;22.00;20.50;;;;;;;;2938264;30;10724516;-74
2021/10/13 03:14:53;;;;;;;;;27.20;24.80;;;;;;;;939911;30;14225025;-75
2021/10/13 03:17:29;;;;;;;;;33.00;31.00;;;;;;;;2817379;30;13383171;-75
2021/10/13 03:22:13;;;;;;;;;;;;;;;;;;278927;30;146911233;-75
2021/10/13 03:24:41;;;;;;;;;21.25;18.00;;;;;;;;3213722;30;29903992;-75
2021/10/13 03:27:07;;;;;;;;;22.25;21.75;;;;;;;;4686193;30;29465;-75
2021/10/13 03:29:32;;;;;;;;;16.25;10.75;;;;;;;;4682103;30;29450;-75
2021/10/13 03:31:57;;;;;;;;;23.00;22.75;;;;;;;;4684073;30;29332;-75
2021/10/13 03:34:23;;;;;;;;;19.00;17.50;;;;;;;;4692565;30;29573;-75
2021/10/13 03:36:49;;;;;;;;;23.00;19.50;;;;;;;;4682457;30;29738;-75
2021/10/13 03:39:15;;;;;;;;;20.00;20.00;;;;;;;;4699046;30;29563;-75
2021/10/13 03:41:41;;;;;;;;;29.25;27.00;;;;;;;;4686443;30;29476;-75
2021/10/13 03:44:07;;;;;;;;;21.00;19.50;;;;;;;;4690653;30;29497;-75
2021/10/13 03:46:32;;;;;;;;;25.75;23.75;;;;;;;;4686195;30;30937;-75
2021/10/13 03:48:59;;;;;;;;;20.50;20.00;;;;;;;;4321424;30;9641394;-75
2021/10/13 03:52:08;;;;;;;;;19.50;13.00;;;;;;;;2110202;30;53060559;-76
2021/10/13 03:54:33;;;;;;;;;26.75;24.75;;;;;;;;3717949;30;21227630;-75
2021/10/13 03:57:16;;;;;;;;;;;;;;;;;;3624781;30;49087003;-75
2021/10/13 03:59:42;;;;;;;;;24.00;24.00;;;;;;;;1791505;30;18968023;-75
2021/10/13 04:04:11;;;;;;;;;;;;;;;;;;409970;30;250946913;-74
2021/10/13 04:07:28;;;;;;;;;4.00;4.00;;;;;;;;404861;30;52558535;-75
2021/10/13 04:10:24;;;;;;;;;38.00;34.50;;;;;;;;8;12602040;35713350;-74
2021/10/13 04:13:26;;;;;;;;;12.50;12.50;;;;;;;;1750702;30;37720866;-75
2021/10/13 04:15:52;;;;;;;;;21.00;21.00;;;;;;;;490569;30;127224333;-75
2021/10/13 04:18:17;;;;;;;;;18.75;16.75;;;;;;;;4418769;30;8160746;-74
2021/10/13 04:20:42;;;;;;;;;24.00;23.00;;;;;;;;4665131;30;30168;-74
2021/10/13 04:23:08;;;;;;;;;17.25;15.50;;;;;;;;4680921;30;31112;-75
2021/10/13 04:25:33;;;;;;;;;13.00;11.50;;;;;;;;4693467;30;30696;-75
2021/10/13 04:27:58;;;;;;;;;16.75;14.50;;;;;;;;4664789;30;30247;-75
2021/10/13 04:30:24;;;;;;;;;20.33;17.67;;;;;;;;4680925;30;30076;-75
2021/10/13 04:32:49;;;;;;;;;21.75;19.75;;;;;;;;4688140;30;31221;-76
2021/10/13 04:35:14;;;;;;;;;31.50;31.50;;;;;;;;4695922;30;30407;-76
2021/10/13 04:37:40;;;;;;;;;11.75;11.75;;;;;;;;4686617;30;30053;-76
2021/10/13 04:40:06;;;;;;;;;23.50;23.50;;;;;;;;4697714;30;29990;-76
2021/10/13 04:42:32;;;;;;;;;17.75;16.00;;;;;;;;4669371;30;31568;-76
2021/10/13 04:44:57;;;;;;;;;20.00;18.75;;;;;;;;4692019;30;30576;-76
2021/10/13 04:47:22;;;;;;;;;27.25;25.50;;;;;;;;4685496;30;29794;-76
2021/10/13 04:49:48;;;;;;;;;31.00;31.00;;;;;;;;4692326;30;29882;-76
2021/10/13 04:52:13;;;;;;;;;33.67;29.33;;;;;;;;4696620;30;32518;-75
2021/10/13 04:54:38;;;;;;;;;30.50;24.75;;;;;;;;4681462;30;30152;-75
2021/10/13 04:57:04;;;;;;;;;32.75;31.00;;;;;;;;4697680;30;30198;-75
2021/10/13 04:59:29;;;;;;;;;30.00;27.00;;;;;;;;4684684;30;30323;-75
2021/10/13 05:01:55;;;;;;;;;29.25;24.00;;;;;;;;4691475;30;30066;-76
2021/10/13 05:04:20;;;;;;;;;14.25;14.25;;;;;;;;4679863;30;39817;-75
2021/10/13 05:06:45;;;;;;;;;20.75;19.00;;;;;;;;3430844;30;12311920;-75
2021/10/13 05:09:11;;;;;;;;;28.00;26.25;;;;;;;;4674624;30;111709;-75
2021/10/13 05:11:36;;;;;;;;;23.00;22.25;;;;;;;;4679249;30;43401;-75
2021/10/13 05:14:02;;;;;;;;;24.00;22.25;;;;;;;;4668056;30;29968;-75
2021/10/13 05:16:27;;;;;;;;;14.25;12.25;;;;;;;;4680687;30;30266;-75
2021/10/13 05:18:53;;;;;;;;;13.00;12.75;;;;;;;;4682689;30;30044;-76
2021/10/13 05:21:18;;;;;;;;;10.25;10.00;;;;;;;;4683627;30;30056;-76
2021/10/13 05:23:44;;;;;;;;;24.25;23.50;;;;;;;;4683685;30;30414;-75
2021/10/13 05:26:09;;;;;;;;;14.00;10.75;;;;;;;;4694828;30;31052;-75
2021/10/13 05:28:34;;;;;;;;;15.75;13.25;;;;;;;;4683196;30;29777;-75
2021/10/13 05:31:00;;;;;;;;;13.75;12.75;;;;;;;;4684898;30;29776;-74
2021/10/13 05:33:25;;;;;;;;;23.33;19.00;;;;;;;;4694598;30;29745;-74
2021/10/13 05:35:50;;;;;;;;;22.75;17.25;;;;;;;;4694364;30;30057;-74
2021/10/13 05:38:16;;;;;;;;;16.00;15.00;;;;;;;;4695640;30;29963;-74
2021/10/13 05:40:41;;;;;;;;;13.50;9.25;;;;;;;;4687606;30;29824;-76
2021/10/13 05:43:06;;;;;;;;;32.67;31.67;;;;;;;;4680448;30;29708;-75
2021/10/13 05:45:32;;;;;;;;;14.25;14.25;;;;;;;;4679225;30;29466;-75
2021/10/13 05:47:57;;;;;;;;;34.33;33.00;;;;;;;;4693519;30;29346;-75
2021/10/13 05:50:22;;;;;;;;;27.75;27.25;;;;;;;;4669019;30;29632;-75
2021/10/13 05:52:47;;;;;;;;;42.25;39.00;;;;;;;;4684886;30;29294;-75
2021/10/13 05:55:13;;;;;;;;;33.67;33.67;;;;;;;;4688325;30;30340;-75
2021/10/13 05:57:38;;;;;;;;;18.33;16.00;;;;;;;;4699599;30;29914;-76
2021/10/13 06:00:04;;;;;;;;;46.00;39.50;;;;;;;;4688006;30;29887;-76
2021/10/13 06:02:32;;;;;;;;;55.25;45.75;;;;;;;;4683052;30;30264;-75
2021/10/13 06:04:57;;;;;;;;;46.50;41.25;;;;;;;;4667193;30;31776;-76
2021/10/13 06:07:23;;;;;;;;;50.33;42.33;;;;;;;;4682846;30;30043;-75
2021/10/13 06:09:48;;;;;;;;;45.33;39.67;;;;;;;;4684061;30;29901;-75
2021/10/13 06:12:13;;;;;;;;;41.33;38.00;;;;;;;;4687061;30;29539;-76
2021/10/13 06:14:39;;;;;;;;;53.25;44.75;;;;;;;;4692666;30;30044;-76
2021/10/13 06:17:06;;;;;;;;;27.50;24.25;;;;;;;;4698552;30;29482;-77
2021/10/13 06:19:31;;;;;;;;;31.25;30.25;;;;;;;;4691939;30;29394;-77
2021/10/13 06:21:57;;;;;;;;;26.25;25.75;;;;;;;;4682695;30;29712;-76
2021/10/13 06:24:22;;;;;;;;;42.00;37.75;;;;;;;;4688730;30;29804;-76
2021/10/13 06:26:47;;;;;;;;;30.33;29.33;;;;;;;;4699931;30;29823;-76
2021/10/13 06:29:13;;;;;;;;;24.00;23.00;;;;;;;;4694423;30;29867;-76
2021/10/13 06:31:38;;;;;;;;;25.75;23.25;;;;;;;;4696601;30;30247;-77
2021/10/13 06:34:03;;;;;;;;;36.00;31.50;;;;;;;;4682869;30;31116;-76
2021/10/13 06:36:29;;;;;;;;;30.50;26.75;;;;;;;;4682268;30;29883;-75
2021/10/13 06:38:54;;;;;;;;;42.67;36.67;;;;;;;;4683362;30;30215;-77
2021/10/13 06:41:20;;;;;;;;;41.33;37.00;;;;;;;;4682472;30;30168;-76
2021/10/13 06:43:45;;;;;;;;;19.25;18.00;;;;;;;;4688273;30;30061;-78
2021/10/13 06:46:11;;;;;;;;;22.50;21.75;;;;;;;;4696787;30;30087;-78
2021/10/13 06:48:36;;;;;;;;;37.25;34.75;;;;;;;;4696994;30;30294;-78
2021/10/13 06:51:02;;;;;;;;;24.00;21.25;;;;;;;;4685235;30;29833;-78
2021/10/13 06:53:27;;;;;;;;;11.25;8.50;;;;;;;;4676292;30;31373;-78
2021/10/13 06:55:54;;;;;;;;;42.00;38.67;;;;;;;;4699901;30;29707;-78
2021/10/13 06:58:20;;;;;;;;;36.00;31.25;;;;;;;;4695209;30;29461;-78
2021/10/13 07:00:45;;;;;;;;;47.00;41.00;;;;;;;;4682641;30;29487;-78
2021/10/13 07:03:10;;;;;;;;;14.33;14.33;;;;;;;;4689860;30;30024;-78
2021/10/13 07:05:36;;;;;;;;;34.00;31.33;;;;;;;;4689818;30;29334;-78
2021/10/13 07:08:02;;;;;;;;;43.00;38.75;;;;;;;;4694748;30;30108;-78
2021/10/13 07:10:27;;;;;;;;;36.50;32.75;;;;;;;;4682803;30;29775;-78
2021/10/13 07:12:53;;;;;;;;;25.25;20.50;;;;;;;;4694141;30;30011;-78
2021/10/13 07:15:18;;;;;;;;;23.50;21.50;;;;;;;;4699062;30;29814;-77
2021/10/13 07:17:44;;;;;;;;;31.50;28.00;;;;;;;;4683315;30;29967;-78
2021/10/13 07:20:09;;;;;;;;;30.50;27.25;;;;;;;;4682490;30;29701;-77
2021/10/13 07:22:35;;;;;;;;;20.25;18.00;;;;;;;;4686893;30;30047;-77
2021/10/13 07:25:00;;;;;;;;;16.00;14.50;;;;;;;;4698644;30;29982;-78
2021/10/13 07:27:27;;;;;;;;;21.00;20.00;;;;;;;;4678917;30;29882;-78
2021/10/13 07:30:00;;;;;;;;;21.75;19.00;;;;;;;;4687018;30;30042;-76
2021/10/13 07:32:29;;;;;;;;;41.00;37.25;;;;;;;;4686531;30;30880;-80
2021/10/13 07:34:54;;;;;;;;;38.00;35.00;;;;;;;;4692500;30;30011;-81
2021/10/13 07:37:19;;;;;;;;;46.50;38.00;;;;;;;;4694556;30;30191;-80
2021/10/13 07:39:45;;;;;;;;;39.25;35.25;;;;;;;;4693731;30;29867;-80
2021/10/13 07:42:11;;;;;;;;;49.75;41.25;;;;;;;;4687958;30;30014;-77
2021/10/13 07:44:37;;;;;;;;;40.00;37.00;;;;;;;;4698570;30;29986;-77
2021/10/13 07:47:02;;;;;;;;;44.25;39.50;;;;;;;;4689071;30;29795;-77
2021/10/13 07:49:28;;;;;;;;;50.50;43.75;;;;;;;;4697439;30;29891;-77
2021/10/13 07:51:53;;;;;;;;;43.67;40.00;;;;;;;;4697722;30;30077;-75
2021/10/13 07:54:20;;;;;;;;;51.67;45.00;;;;;;;;4683600;30;30166;-76
2021/10/13 07:56:46;;;;;;;;;45.25;39.25;;;;;;;;4679339;30;30035;-77
2021/10/13 07:59:11;;;;;;;;;41.50;37.00;;;;;;;;4681605;30;30347;-77
2021/10/13 08:01:36;;;;;;;;;44.00;38.67;;;;;;;;4665655;30;31718;-74
2021/10/13 08:04:03;;;;;;;;;42.00;37.67;;;;;;;;4695798;30;30085;-74
2021/10/13 08:06:28;;;;;;;;;32.75;32.00;;;;;;;;4684757;30;30038;-74
2021/10/13 08:08:53;;;;;;;;;28.75;27.00;;;;;;;;4681901;30;29990;-75
2021/10/13 08:11:19;;;;;;;;;25.00;24.50;;;;;;;;4681182;30;30090;-75
2021/10/13 08:13:44;;;;;;;;;39.50;36.25;;;;;;;;4684649;30;30057;-75
2021/10/13 08:16:09;;;;;;;;;26.50;23.50;;;;;;;;4684783;30;30034;-75
2021/10/13 08:18:35;;;;;;;;;33.00;29.67;;;;;;;;4681363;30;30394;-74
2021/10/13 08:21:01;;;;;;;;;28.25;23.25;;;;;;;;4665438;30;29924;-75
2021/10/13 08:23:26;;;;;;;;;24.00;21.75;;;;;;;;4691361;30;29816;-75
2021/10/13 08:25:55;;;;;;;;;35.50;34.25;;;;;;;;4678425;30;30046;-75
2021/10/13 08:28:20;;;;;;;;;31.50;29.00;;;;;;;;4693554;30;29873;-75
2021/10/13 08:30:46;;;;;;;;;27.50;27.50;;;;;;;;4666666;30;31047;-75
2021/10/13 08:33:11;;;;;;;;;20.00;19.00;;;;;;;;4681538;30;30106;-75
2021/10/13 08:35:36;;;;;;;;;33.00;27.67;;;;;;;;4680878;30;29952;-75
2021/10/13 08:38:02;;;;;;;;;24.75;22.50;;;;;;;;4681096;30;29997;-75
2021/10/13 08:40:27;;;;;;;;;25.75;22.25;;;;;;;;4665230;30;30173;-74
2021/10/13 08:42:57;;;;;;;;;38.33;36.00;;;;;;;;4686352;30;30135;-75
2021/10/13 08:45:24;;;;;;;;;20.25;18.75;;;;;;;;4692530;30;29977;-75
2021/10/13 08:47:49;;;;;;;;;19.00;15.75;;;;;;;;4690348;30;29946;-75
2021/10/13 08:50:15;;;;;;;;;22.25;22.25;;;;;;;;4683024;30;30261;-75
2021/10/13 08:52:40;;;;;;;;;18.25;17.25;;;;;;;;4681582;30;30151;-75
2021/10/13 08:55:07;;;;;;;;;20.75;19.75;;;;;;;;4684658;30;30146;-74
2021/10/13 08:57:32;;;;;;;;;13.75;13.00;;;;;;;;4697970;30;29905;-75
2021/10/13 08:59:58;;;;;;;;;25.75;24.50;;;;;;;;4681357;30;29868;-75
2021/10/13 09:02:44;;;;;;;;;9.25;9.00;;;;;;;;4682054;30;30114;-75
2021/10/13 09:05:10;;;;;;;;;13.25;11.50;;;;;;;;4688400;30;30002;-75
2021/10/13 09:07:36;;;;;;;;;16.25;13.25;;;;;;;;4684614;30;30189;-75
2021/10/13 09:10:02;;;;;;;;;13.25;12.00;;;;;;;;4680778;30;29950;-75
2021/10/13 09:12:28;;;;;;;;;14.75;10.75;;;;;;;;4680280;30;29862;-75
2021/10/13 09:15:02;;;;;;;;;12.00;9.25;;;;;;;;4668763;30;29928;-75
2021/10/13 09:17:27;;;;;;;;;8.50;8.50;;;;;;;;4680501;30;29991;-75
2021/10/13 09:19:52;;;;;;;;;18.67;14.67;;;;;;;;4680569;30;30012;-75
2021/10/13 09:22:20;;;;;;;;;18.50;18.50;;;;;;;;4665141;30;30118;-75
2021/10/13 09:24:46;;;;;;;;;13.50;10.75;;;;;;;;4682161;30;30363;-75
2021/10/13 09:27:22;;;;;;;;;16.00;16.00;;;;;;;;4687896;30;30337;-75
2021/10/13 09:29:47;;;;;;;;;15.50;15.00;;;;;;;;4673298;30;32448;-75
2021/10/13 09:32:13;;;;;;;;;17.50;15.75;;;;;;;;4683122;30;30019;-74
2021/10/13 09:34:45;;;;;;;;;9.50;9.00;;;;;;;;4689094;30;30003;-74
2021/10/13 09:37:10;;;;;;;;;20.75;18.25;;;;;;;;4680114;30;30192;-74
2021/10/13 09:39:37;;;;;;;;;16.00;14.00;;;;;;;;4680389;30;30874;-73
2021/10/13 09:42:02;;;;;;;;;13.75;9.50;;;;;;;;4680029;30;30157;-74
2021/10/13 09:44:28;;;;;;;;;16.25;12.00;;;;;;;;4696018;30;30047;-74
2021/10/13 09:47:00;;;;;;;;;9.75;9.75;;;;;;;;4684113;30;29992;-74
2021/10/13 09:49:30;;;;;;;;;11.50;10.25;;;;;;;;4688392;30;30159;-74
2021/10/13 09:52:00;;;;;;;;;15.75;12.75;;;;;;;;4679841;30;30043;-74
2021/10/13 09:54:26;;;;;;;;;9.75;9.50;;;;;;;;4664874;30;30073;-74
2021/10/13 09:56:51;;;;;;;;;7.00;7.00;;;;;;;;4690382;30;30014;-74
2021/10/13 09:59:17;;;;;;;;;14.75;13.75;;;;;;;;4679884;30;30388;-74
2021/10/13 10:01:49;;;;;;;;;3.75;3.25;;;;;;;;4679875;30;30117;-74
2021/10/13 10:04:25;;;;;;;;;12.25;11.25;;;;;;;;4680631;30;30070;-74
2021/10/13 10:06:52;;;;;;;;;12.25;12.25;;;;;;;;4681476;30;30082;-74
2021/10/13 10:09:19;;;;;;;;;11.75;8.75;;;;;;;;4682832;30;30864;-74
2021/10/13 10:11:44;;;;;;;;;5.75;5.75;;;;;;;;4682552;30;30276;-74
2021/10/13 10:14:28;;;;;;;;;9.25;9.25;;;;;;;;4685694;30;30023;-73
2021/10/13 10:16:53;;;;;;;;;11.75;10.75;;;;;;;;4682801;30;30409;-74
2021/10/13 10:19:23;;;;;;;;;14.00;13.75;;;;;;;;4693961;30;30181;-74
2021/10/13 10:21:51;;;;;;;;;17.75;15.75;;;;;;;;4682341;30;29923;-74
2021/10/13 10:24:24;;;;;;;;;14.50;13.00;;;;;;;;4696146;30;31066;-74
2021/10/13 10:26:50;;;;;;;;;10.25;8.75;;;;;;;;4690179;30;30139;-75
2021/10/13 10:29:16;;;;;;;;;16.00;14.75;;;;;;;;4694486;30;30113;-75
2021/10/13 10:31:53;;;;;;;;;17.00;16.00;;;;;;;;4689255;30;29974;-74
2021/10/13 10:34:19;;;;;;;;;9.50;7.00;;;;;;;;4689341;30;30026;-75
2021/10/13 10:36:44;;;;;;;;;16.50;14.75;;;;;;;;4686981;30;30088;-75
2021/10/13 10:39:11;;;;;;;;;12.33;11.33;;;;;;;;4682456;30;30077;-75
2021/10/13 10:41:42;;;;;;;;;7.50;7.50;;;;;;;;4682047;30;30335;-75
2021/10/13 10:44:40;;;;;;;;;9.75;6.25;;;;;;;;4694371;30;30127;-75
2021/10/13 10:47:09;;;;;;;;;8.75;8.75;;;;;;;;4656731;30;29994;-74
2021/10/13 10:50:01;;;;;;;;;9.75;8.25;;;;;;;;4689054;30;30903;-75
2021/10/13 10:52:27;;;;;;;;;7.25;6.50;;;;;;;;4680077;30;29960;-74
2021/10/13 10:55:07;;;;;;;;;8.00;8.00;;;;;;;;4685044;30;29941;-74
2021/10/13 10:57:37;;;;;;;;;11.25;9.75;;;;;;;;4699605;30;30086;-74
2021/10/13 11:00:04;;;;;;;;;8.25;6.50;;;;;;;;4682287;30;29970;-75
2021/10/13 11:02:30;;;;;;;;;4.00;3.00;;;;;;;;4666345;30;29996;-74
2021/10/13 11:05:04;;;;;;;;;8.50;6.25;;;;;;;;4687721;30;30091;-74
2021/10/13 11:07:29;;;;;;;;;9.75;5.00;;;;;;;;4670762;30;29966;-74
2021/10/13 11:09:58;;;;;;;;;3.25;3.25;;;;;;;;4681691;30;29956;-74
2021/10/13 11:12:24;;;;;;;;;6.75;5.00;;;;;;;;4681643;30;30085;-74
2021/10/13 11:14:49;;;;;;;;;11.75;11.75;;;;;;;;4685851;30;30096;-75
2021/10/13 11:17:23;;;;;;;;;8.75;5.75;;;;;;;;4694841;30;30018;-74
2021/10/13 11:19:49;;;;;;;;;8.25;7.50;;;;;;;;4690756;30;30185;-74
2021/10/13 11:22:15;;;;;;;;;3.75;3.50;;;;;;;;4681823;30;30046;-74
2021/10/13 11:24:46;;;;;;;;;9.50;9.50;;;;;;;;4697365;30;29973;-74
2021/10/13 11:27:12;;;;;;;;;7.50;5.00;;;;;;;;4689293;30;30239;-74
2021/10/13 11:29:37;;;;;;;;;2.50;1.75;;;;;;;;4691382;30;30656;-75
2021/10/13 11:32:04;;;;;;;;;7.00;5.25;;;;;;;;4681903;30;29455;-74
2021/10/13 11:34:29;;;;;;;;;6.25;6.00;;;;;;;;4682246;30;29918;-74
2021/10/13 11:36:56;;;;;;;;;5.50;5.50;;;;;;;;4681430;30;29907;-74
2021/10/13 11:39:30;;;;;;;;;8.75;8.00;;;;;;;;4681841;30;29880;-75
2021/10/13 11:41:56;;;;;;;;;8.75;7.25;;;;;;;;4681184;30;29904;-75
2021/10/13 11:44:23;;;;;;;;;5.25;4.25;;;;;;;;4694536;30;29933;-75
2021/10/13 11:46:54;;;;;;;;;3.25;3.25;;;;;;;;4685060;30;29951;-75
2021/10/13 11:49:20;;;;;;;;;1.75;1.75;;;;;;;;4690403;30;30954;-75
2021/10/13 11:52:03;;;;;;;;;5.50;5.50;;;;;;;;4665901;30;29928;-74
2021/10/13 11:54:28;;;;;;;;;6.25;6.25;;;;;;;;4683587;30;30322;-75
2021/10/13 11:56:53;;;;;;;;;10.00;8.25;;;;;;;;4698360;30;30328;-75
2021/10/13 11:59:19;;;;;;;;;13.25;13.25;;;;;;;;4686152;30;30085;-75
2021/10/13 12:01:44;;;;;;;;;15.50;14.50;;;;;;;;4681060;30;30169;-75
2021/10/13 12:04:10;;;;;;;;;5.00;5.00;;;;;;;;4692508;30;30164;-75
2021/10/13 12:06:42;;;;;;;;;7.00;6.00;;;;;;;;4692050;30;29979;-74
2021/10/13 12:09:08;;;;;;;;;3.75;3.50;;;;;;;;4680951;30;30878;-74
2021/10/13 12:11:40;;;;;;;;;4.50;3.25;;;;;;;;4680888;30;30035;-74
2021/10/13 12:14:12;;;;;;;;;4.75;3.75;;;;;;;;4668656;30;29957;-75
2021/10/13 12:16:38;;;;;;;;;6.75;6.50;;;;;;;;4681317;30;29897;-75
2021/10/13 12:19:16;;;;;;;;;12.75;12.75;;;;;;;;4665163;30;32336;-75
2021/10/13 12:21:59;;;;;;;;;13.75;13.25;;;;;;;;4680889;30;29951;-75
2021/10/13 12:24:25;;;;;;;;;7.25;6.25;;;;;;;;4672556;30;30410;-75
2021/10/13 12:26:50;;;;;;;;;14.50;14.50;;;;;;;;4682373;30;30133;-75
2021/10/13 12:29:16;;;;;;;;;14.00;13.25;;;;;;;;4692121;30;30820;-75
2021/10/13 12:31:42;;;;;;;;;17.25;17.25;;;;;;;;4680923;30;30224;-75
2021/10/13 12:34:12;;;;;;;;;13.50;13.50;;;;;;;;4680826;30;29989;-75
2021/10/13 12:36:37;;;;;;;;;17.00;15.00;;;;;;;;4680889;30;29876;-75
2021/10/13 12:39:07;;;;;;;;;12.00;9.67;;;;;;;;4680590;30;29994;-75
2021/10/13 12:41:34;;;;;;;;;4.50;3.50;;;;;;;;4680243;30;30193;-75
2021/10/13 12:44:10;;;;;;;;;4.25;3.75;;;;;;;;4689970;30;30027;-75
2021/10/13 12:46:35;;;;;;;;;10.50;10.25;;;;;;;;4684261;30;29831;-75
2021/10/13 12:49:19;;;;;;;;;12.00;11.50;;;;;;;;4691751;30;29899;-75
2021/10/13 12:52:05;;;;;;;;;12.00;10.25;;;;;;;;4680255;30;29992;-75
2021/10/13 12:54:36;;;;;;;;;8.25;8.25;;;;;;;;4681192;30;30320;-75
2021/10/13 12:57:03;;;;;;;;;12.50;12.50;;;;;;;;4681982;30;29988;-75
2021/10/13 12:59:28;;;;;;;;;12.50;12.50;;;;;;;;4683770;30;29936;-75
2021/10/13 13:01:54;;;;;;;;;15.50;15.25;;;;;;;;4680381;30;29967;-75
2021/10/13 13:04:20;;;;;;;;;14.00;14.00;;;;;;;;4691874;30;30074;-75
2021/10/13 13:06:45;;;;;;;;;8.50;8.50;;;;;;;;4689941;30;29953;-75
2021/10/13 13:09:10;;;;;;;;;11.75;10.75;;;;;;;;4680573;30;29908;-75
2021/10/13 13:11:36;;;;;;;;;6.00;6.00;;;;;;;;4680463;30;31238;-75
2021/10/13 13:14:02;;;;;;;;;8.50;8.50;;;;;;;;4683304;30;29938;-75
2021/10/13 13:16:27;;;;;;;;;13.50;12.50;;;;;;;;4688860;30;29982;-75
2021/10/13 13:18:53;;;;;;;;;12.00;12.00;;;;;;;;4667426;30;36269;-75
2021/10/13 13:21:18;;;;;;;;;8.00;7.50;;;;;;;;4679187;30;55043;-75
2021/10/13 13:23:44;;;;;;;;;16.25;16.25;;;;;;;;4686974;30;30289;-75
2021/10/13 13:26:21;;;;;;;;;;;;;;;;;;810433;30;75099845;-75
2021/10/13 13:35:16;;;;;;;;;1.00;1.00;;;;;;;;480287;30;220417129;-75
2021/10/13 13:43:09;;;;;;;;;1.00;1.00;;;;;;;;2;243164215;243164215;-75
2021/10/13 13:51:03;;;;;;;;;4.00;4.00;;;;;;;;2;216138364;216138364;-75
2021/10/13 13:59:19;;;;;;;;;2.50;2.50;;;;;;;;2;260001251;260001251;-75
2021/10/13 14:07:30;;;;;;;;;1.50;1.50;;;;;;;;2;216476053;216476053;-75
2021/10/13 14:15:56;;;;;;;;;4.00;4.00;;;;;;;;2;261231033;261231033;-75
2021/10/13 14:24:14;;;;;;;;;5.00;5.00;;;;;;;;2;220943433;220943433;-75
2021/10/13 14:32:43;;;;;;;;;6.00;6.00;;;;;;;;2;265689706;265689706;-75
2021/10/13 14:40:42;;;;;;;;;1.50;1.50;;;;;;;;2;215207774;215207774;-75
2021/10/13 14:48:52;;;;;;;;;1.50;1.50;;;;;;;;2;253620159;253620159;-75
2021/10/13 14:56:44;;;;;;;;;2.50;2.50;;;;;;;;2;211197471;211197471;-75
2021/10/13 15:04:46;;;;;;;;;4.00;4.00;;;;;;;;2;246286288;246286288;-75
2021/10/13 15:12:23;;;;;;;;;5.50;5.50;;;;;;;;2;206514345;206514345;-75
2021/10/13 15:20:21;;;;;;;;;1.00;1.00;;;;;;;;2;243664187;243664187;-75
2021/10/13 15:28:16;;;;;;;;;4.00;4.00;;;;;;;;2;214228173;214228173;-75
2021/10/13 15:36:24;;;;;;;;;7.00;4.50;;;;;;;;2;248827452;248827452;-75
2021/10/13 15:44:27;;;;;;;;;2.50;2.50;;;;;;;;2;216110726;216110726;-75
2021/10/13 15:54:29;;;;;;;;;1.50;1.50;;;;;;;;3;143888960;223319845;-75
2021/10/13 16:00:52;;;;;;;;;;;;;;;;;;2;288084507;288084507;-75
2021/10/13 16:05:14;;;;;;;;;3.50;3.50;;;;;;;;265379;30;30034538;-75
2021/10/13 16:08:22;;;;;;;;;8.50;6.50;;;;;;;;642712;30;92323330;-75
2021/10/13 16:13:32;;;;;;;;;;;;;;;;;;209889;30;201652722;-75
2021/10/13 16:23:14;;;;;;;;;2.50;2.50;;;;;;;;4;30286737;241634169;-75
2021/10/13 16:33:43;;;;;;;;;3.50;3.50;;;;;;;;2;234519586;234519586;-75
2021/10/13 16:42:04;;;;;;;;;3.50;3.50;;;;;;;;2;256728063;256728063;-75
2021/10/13 16:49:02;;;;;;;;;4.50;4.50;;;;;;;;2;225160981;225160981;-75
2021/10/13 16:56:43;;;;;;;;;5.00;5.00;;;;;;;;2;234576876;234576876;-76
2021/10/13 17:03:22;;;;;;;;;5.00;5.00;;;;;;;;2;212726404;212726404;-75
2021/10/13 17:11:00;;;;;;;;;13.00;13.00;;;;;;;;2;232537679;232537679;-75
2021/10/13 17:17:47;;;;;;;;;10.50;10.50;;;;;;;;2;211554643;211554643;-75
2021/10/13 17:25:49;;;;;;;;;8.00;8.00;;;;;;;;2;252515575;252515575;-75
2021/10/13 17:32:58;;;;;;;;;8.50;8.50;;;;;;;;2;226596724;226596724;-75
2021/10/13 17:41:17;;;;;;;;;5.00;5.00;;;;;;;;2;250899919;250899919;-76
2021/10/13 17:48:28;;;;;;;;;13.50;10.50;;;;;;;;2;221071836;221071836;-76
2021/10/13 17:56:52;;;;;;;;;11.00;11.00;;;;;;;;2;254853175;254853175;-76
2021/10/13 18:04:16;;;;;;;;;11.50;10.00;;;;;;;;2;233262268;233262268;-76
2021/10/13 18:12:41;;;;;;;;;18.50;14.50;;;;;;;;2;262507393;262507393;-75
2021/10/13 18:18:22;;;;;;;;;16.00;16.00;;;;;;;;2;182977913;182977913;-75
2021/10/13 18:26:35;;;;;;;;;15.50;15.50;;;;;;;;2;250551131;250551131;-75
2021/10/13 18:33:58;;;;;;;;;18.00;18.00;;;;;;;;2;231037411;231037411;-75
2021/10/13 18:41:58;;;;;;;;;22.00;19.50;;;;;;;;2;246912607;246912607;-76
2021/10/13 18:44:23;;;;;;;;;28.67;26.00;;;;;;;;1694957;30;59727597;-75
2021/10/13 18:51:12;;;;;;;;;;;;;;;;;;571675;30;193414168;-75
2021/10/13 18:53:47;;;;;;;;;41.00;36.00;;;;;;;;1594529;30;32392385;-76
2021/10/13 18:59:14;;;;;;;;;;;;;;;;;;7;10111335;130771369;-76
2021/10/13 19:03:41;;;;;;;;;13.50;13.50;;;;;;;;2;150662584;150662584;-76
2021/10/13 19:12:21;;;;;;;;;25.00;25.00;;;;;;;;3;91481497;189961669;-76
2021/10/13 19:20:17;;;;;;;;;21.00;18.50;;;;;;;;2;215506303;215506303;-76
2021/10/13 19:28:21;;;;;;;;;30.00;28.00;;;;;;;;2;246536200;246536200;-76